Time;durP1;ratioP1;P1;durP2;ratioP2;P2;SDS_P1;SDS_P2;PMS_P1;PMS_P2;Temp;Humidity;BMP_temperature;BMP_pressure;BME280_temperature;BME280_humidity;BME280_pressure;Samples;Min_cycle;Max_cycle;Signal;HPM_P1;HPM_P2
2023/04/11 00:00:28;;;;;;;14.07;9.10;;;;;;;;;;2024440;29;20134;-90
2023/04/11 00:01:31;;;;;;;16.23;8.48;;;;;;;;;;2024513;29;20025;-91
2023/04/11 00:02:33;;;;;;;12.85;8.75;;;;;;;;;;2017117;29;20131;-92
2023/04/11 00:04:56;;;;;;;11.27;7.95;;;;;;;;;;2274714;23;20199;-94
2023/04/11 00:05:56;;;;;;;11.77;8.63;;;;;;;;;;2010254;29;20092;-94
2023/04/11 00:06:56;;;;;;;;;;;;;;;;;;2010646;29;20026;-95
2023/04/11 00:07:57;;;;;;;13.60;8.80;;;;;;;;;;2011061;29;19968;-94
2023/04/11 00:08:57;;;;;;;11.57;8.27;;;;;;;;;;2010950;29;20504;-96
2023/04/11 00:10:01;;;;;;;;;;;;;;;;;;2011427;29;20025;-95
2023/04/11 00:11:01;;;;;;;13.55;8.55;;;;;;;;;;2012471;29;19916;-94
2023/04/11 00:12:02;;;;;;;;;;;;;;;;;;2020156;29;20029;-94
2023/04/11 00:13:03;;;;;;;13.57;8.63;;;;;;;;;;2018846;29;19920;-93
2023/04/11 00:14:04;;;;;;;;;;;;;;;;;;2011597;29;20032;-94
2023/04/11 00:15:06;;;;;;;12.18;7.50;;;;;;;;;;2010857;29;20344;-93
2023/04/11 00:16:08;;;;;;;13.73;8.95;;;;;;;;;;2010472;29;20029;-94
2023/04/11 00:17:11;;;;;;;12.45;8.43;;;;;;;;;;2010594;29;20084;-95
2023/04/11 00:18:11;;;;;;;13.27;9.07;;;;;;;;;;2010803;29;20066;-95
2023/04/11 00:19:11;;;;;;;;;;;;;;;;;;2011408;29;20142;-94
2023/04/11 00:20:13;;;;;;;14.37;9.33;;;;;;;;;;2002500;29;19923;-93
2023/04/11 00:21:13;;;;;;;15.95;9.65;;;;;;;;;;2002950;29;20145;-91
2023/04/11 00:22:16;;;;;;;;;;;;;;;;;;2002216;29;20026;-91
2023/04/11 00:23:17;;;;;;;13.82;8.68;;;;;;;;;;2009800;29;19999;-91
2023/04/11 00:24:17;;;;;;;;;;;;;;;;;;2018298;29;20472;-91
2023/04/11 00:25:19;;;;;;;13.47;8.70;;;;;;;;;;1680316;29;10000560;-90
2023/04/11 00:26:20;;;;;;;14.38;8.88;;;;;;;;;;2017269;29;20040;-91
2023/04/11 00:27:21;;;;;;;12.85;9.13;;;;;;;;;;2016776;29;20065;-92
2023/04/11 00:28:21;;;;;;;;;;;;;;;;;;2009827;29;20232;-92
2023/04/11 00:29:22;;;;;;;13.33;8.83;;;;;;;;;;2009407;29;20014;-92
2023/04/11 00:30:22;;;;;;;13.60;9.20;;;;;;;;;;2017662;29;20116;-92
2023/04/11 00:31:23;;;;;;;15.20;9.60;;;;;;;;;;2016937;29;20132;-92
2023/04/11 00:32:23;;;;;;;12.23;8.48;;;;;;;;;;2008991;29;20123;-92
2023/04/11 00:33:24;;;;;;;13.77;9.27;;;;;;;;;;2002882;29;20470;-92
2023/04/11 00:34:25;;;;;;;;;;;;;;;;;;2009380;29;20040;-90
2023/04/11 00:35:25;;;;;;;14.07;8.93;;;;;;;;;;2024661;29;19962;-91
2023/04/11 00:36:26;;;;;;;13.32;9.38;;;;;;;;;;2016821;29;20060;-91
2023/04/11 00:37:26;;;;;;;13.95;9.77;;;;;;;;;;1659467;29;10431256;-90
2023/04/11 00:38:26;;;;;;;14.00;9.32;;;;;;;;;;2001462;29;20383;-90
2023/04/11 00:39:29;;;;;;;14.50;9.95;;;;;;;;;;2001534;29;20458;-92
2023/04/11 00:40:30;;;;;;;15.30;10.23;;;;;;;;;;2001462;29;20526;-90
2023/04/11 00:41:31;;;;;;;16.13;9.75;;;;;;;;;;2009370;29;20064;-92
2023/04/11 00:42:32;;;;;;;13.20;10.00;;;;;;;;;;1672574;29;10238938;-91
2023/04/11 00:43:32;;;;;;;16.95;10.30;;;;;;;;;;2009138;29;20508;-90
2023/04/11 00:44:33;;;;;;;;;;;;;;;;;;2002152;29;20133;-92
2023/04/11 00:45:35;;;;;;;14.75;9.98;;;;;;;;;;2001457;29;19935;-90
2023/04/11 00:46:36;;;;;;;13.88;9.65;;;;;;;;;;2009527;29;20497;-91
2023/04/11 00:47:37;;;;;;;;;;;;;;;;;;2009643;29;20033;-91
2023/04/11 00:48:38;;;;;;;16.58;9.23;;;;;;;;;;2008776;29;19939;-91
2023/04/11 00:49:39;;;;;;;;;;;;;;;;;;2009165;29;20048;-92
2023/04/11 00:50:41;;;;;;;17.05;10.50;;;;;;;;;;2008623;29;19987;-91
2023/04/11 00:51:41;;;;;;;14.77;9.35;;;;;;;;;;2008686;29;20105;-91
2023/04/11 00:52:45;;;;;;;;;;;;;;;;;;2008926;29;20123;-91
2023/04/11 00:53:47;;;;;;;15.52;9.80;;;;;;;;;;2008423;29;19916;-91
2023/04/11 00:54:47;;;;;;;15.48;10.18;;;;;;;;;;2002436;29;20534;-95
2023/04/11 00:55:48;;;;;;;;;;;;;;;;;;2010249;29;20049;-96
2023/04/11 00:56:49;;;;;;;14.55;9.75;;;;;;;;;;2010029;29;19916;-95
2023/04/11 00:57:53;;;;;;;13.82;10.20;;;;;;;;;;2010284;29;20116;-95
2023/04/11 00:58:55;;;;;;;13.88;9.68;;;;;;;;;;2009941;29;20420;-95
2023/04/11 00:59:55;;;;;;;15.63;10.93;;;;;;;;;;2002366;29;20034;-95
2023/04/11 01:00:55;;;;;;;;;;;;;;;;;;2002730;29;20549;-96
2023/04/11 01:01:57;;;;;;;14.60;9.90;;;;;;;;;;2009934;29;19951;-95
2023/04/11 01:02:57;;;;;;;15.15;9.75;;;;;;;;;;2017826;29;20063;-92
2023/04/11 01:03:59;;;;;;;;;;;;;;;;;;2009195;29;20084;-90
2023/04/11 01:05:00;;;;;;;;;;;;;;;;;;2011211;29;20061;-90
2023/04/11 01:06:00;;;;;;;14.82;9.85;;;;;;;;;;2017249;29;19912;-90
2023/04/11 01:07:05;;;;;;;;;;;;;;;;;;2001254;29;20030;-92
2023/04/11 01:08:06;;;;;;;15.18;10.13;;;;;;;;;;2001412;29;19912;-91
2023/04/11 01:09:07;;;;;;;15.40;9.65;;;;;;;;;;2000491;29;20138;-91
2023/04/11 01:10:08;;;;;;;;;;;;;;;;;;2008743;29;20463;-91
2023/04/11 01:11:11;;;;;;;17.17;9.50;;;;;;;;;;2000646;29;20003;-91
2023/04/11 01:12:13;;;;;;;15.65;9.82;;;;;;;;;;2008686;29;20073;-91
2023/04/11 01:13:14;;;;;;;16.15;10.95;;;;;;;;;;2008435;29;20440;-91
2023/04/11 01:14:18;;;;;;;;;;;;;;;;;;2008733;29;20091;-91
2023/04/11 01:15:18;;;;;;;17.80;10.07;;;;;;;;;;2016188;29;19967;-91
2023/04/11 01:16:20;;;;;;;;;;;;;;;;;;2016539;29;20072;-90
2023/04/11 01:17:20;;;;;;;17.17;10.50;;;;;;;;;;2009031;29;20031;-91
2023/04/11 01:18:21;;;;;;;;;;;;;;;;;;2009151;29;20037;-91
2023/04/11 01:19:24;;;;;;;13.57;9.80;;;;;;;;;;2008439;29;20527;-91
2023/04/11 01:20:25;;;;;;;14.77;9.70;;;;;;;;;;2008773;29;20118;-92
2023/04/11 01:21:25;;;;;;;;;;;;;;;;;;2009011;29;20070;-91
2023/04/11 01:22:27;;;;;;;16.87;10.00;;;;;;;;;;2008677;29;19912;-91
2023/04/11 01:23:28;;;;;;;12.98;9.43;;;;;;;;;;2001119;29;20037;-92
2023/04/11 01:24:28;;;;;;;;;;;;;;;;;;2009154;29;20036;-92
2023/04/11 01:25:28;;;;;;;15.83;9.83;;;;;;;;;;2009030;29;19920;-91
2023/04/11 01:26:29;;;;;;;;;;;;;;;;;;2009271;29;20457;-91
2023/04/11 01:27:32;;;;;;;14.82;9.80;;;;;;;;;;2009842;29;19983;-91
2023/04/11 01:28:33;;;;;;;15.45;10.13;;;;;;;;;;2018975;29;20093;-91
2023/04/11 01:29:33;;;;;;;;;;;;;;;;;;2018710;29;20033;-91
2023/04/11 01:30:34;;;;;;;17.13;10.17;;;;;;;;;;2010903;29;19984;-91
2023/04/11 01:31:34;;;;;;;15.48;9.65;;;;;;;;;;2025081;29;20037;-91
2023/04/11 01:32:35;;;;;;;13.85;9.75;;;;;;;;;;2014651;29;20086;-91
2023/04/11 01:33:36;;;;;;;14.73;9.75;;;;;;;;;;2011712;29;20025;-91
2023/04/11 01:34:40;;;;;;;15.40;10.02;;;;;;;;;;2014433;29;20033;-94
2023/04/11 01:35:43;;;;;;;16.83;10.30;;;;;;;;;;2009742;29;20061;-95
2023/04/11 01:36:44;;;;;;;13.57;9.68;;;;;;;;;;2009318;29;20033;-91
2023/04/11 01:37:45;;;;;;;;;;;;;;;;;;2009029;29;20285;-91
2023/04/11 01:38:45;;;;;;;15.82;9.48;;;;;;;;;;2008925;29;19912;-91
2023/04/11 01:39:46;;;;;;;;;;;;;;;;;;2020239;29;20068;-91
2023/04/11 01:40:46;;;;;;;16.20;9.97;;;;;;;;;;2025011;29;19939;-91
2023/04/11 01:41:46;;;;;;;;;;;;;;;;;;2013225;29;20120;-91
2023/04/11 01:42:48;;;;;;;15.07;9.20;;;;;;;;;;2008788;29;19912;-91
2023/04/11 01:43:48;;;;;;;14.93;9.60;;;;;;;;;;2008547;29;20080;-91
2023/04/11 01:44:49;;;;;;;;;;;;;;;;;;2016696;29;20040;-91
2023/04/11 01:45:50;;;;;;;13.02;8.57;;;;;;;;;;2011207;29;19934;-91
2023/04/11 01:46:51;;;;;;;13.48;9.10;;;;;;;;;;2018817;29;20074;-91
2023/04/11 01:47:53;;;;;;;;;;;;;;;;;;2018986;29;20033;-91
2023/04/11 01:48:54;;;;;;;14.02;9.20;;;;;;;;;;2015311;29;19927;-91
2023/04/11 01:49:55;;;;;;;13.85;9.18;;;;;;;;;;2009310;29;20116;-90
2023/04/11 01:50:55;;;;;;;;;;;;;;;;;;2001513;29;20029;-90
2023/04/11 01:51:56;;;;;;;15.17;9.40;;;;;;;;;;2016491;29;20003;-91
2023/04/11 01:52:56;;;;;;;;;;;;;;;;;;2016794;29;20061;-91
2023/04/11 01:53:57;;;;;;;13.80;10.13;;;;;;;;;;2000769;29;19912;-91
2023/04/11 01:54:57;;;;;;;16.23;9.93;;;;;;;;;;2008230;29;20093;-90
2023/04/11 01:55:58;;;;;;;17.33;9.60;;;;;;;;;;2008459;29;20048;-90
2023/04/11 01:56:58;;;;;;;15.80;9.40;;;;;;;;;;2008232;29;20419;-90
2023/04/11 01:58:00;;;;;;;;;;;;;;;;;;1705335;29;10388132;-90
2023/04/11 01:59:00;;;;;;;14.70;9.40;;;;;;;;;;2015401;29;19966;-90
2023/04/11 02:00:00;;;;;;;13.70;8.98;;;;;;;;;;2008360;29;20524;-89
2023/04/11 02:01:01;;;;;;;15.82;9.25;;;;;;;;;;2015092;29;20025;-89
2023/04/11 02:02:01;;;;;;;14.18;9.05;;;;;;;;;;2007655;29;20029;-89
2023/04/11 02:03:02;;;;;;;;;;;;;;;;;;2000459;29;20026;-88
2023/04/11 02:04:02;;;;;;;17.00;9.63;;;;;;;;;;2007403;29;20019;-88
2023/04/11 02:05:03;;;;;;;15.25;10.32;;;;;;;;;;1999552;29;20025;-89
2023/04/11 02:06:05;;;;;;;16.98;10.07;;;;;;;;;;2007413;29;20048;-89
2023/04/11 02:07:06;;;;;;;16.10;10.02;;;;;;;;;;2007317;29;20088;-89
2023/04/11 02:08:06;;;;;;;16.27;10.57;;;;;;;;;;2007250;29;20373;-89
2023/04/11 02:09:06;;;;;;;;;;;;;;;;;;2007703;29;20053;-89
2023/04/11 02:10:07;;;;;;;15.00;10.18;;;;;;;;;;2007672;29;19968;-89
2023/04/11 02:11:08;;;;;;;14.50;9.63;;;;;;;;;;2007189;29;20082;-89
2023/04/11 02:12:08;;;;;;;;;;;;;;;;;;1999946;29;20071;-89
2023/04/11 02:13:09;;;;;;;18.07;10.30;;;;;;;;;;2007205;29;19915;-89
2023/04/11 02:14:13;;;;;;;17.17;10.25;;;;;;;;;;2006989;29;20029;-90
2023/04/11 02:15:13;;;;;;;16.70;10.32;;;;;;;;;;2007293;29;20053;-90
2023/04/11 02:16:13;;;;;;;;;;;;;;;;;;2007367;29;20037;-90
2023/04/11 02:17:17;;;;;;;18.97;11.47;;;;;;;;;;2006962;29;19916;-90
2023/04/11 02:18:17;;;;;;;20.30;11.82;;;;;;;;;;2015488;29;20025;-89
2023/04/11 02:19:19;;;;;;;;;;;;;;;;;;2015302;29;20060;-89
2023/04/11 02:20:22;;;;;;;17.02;10.77;;;;;;;;;;2014842;29;20334;-88
2023/04/11 02:21:23;;;;;;;17.45;10.88;;;;;;;;;;2007298;29;20037;-89
2023/04/11 02:22:23;;;;;;;;;;;;;;;;;;2000459;29;20570;-87
2023/04/11 02:23:24;;;;;;;18.00;10.23;;;;;;;;;;2007706;29;20006;-90
2023/04/11 02:24:27;;;;;;;18.73;11.68;;;;;;;;;;1999671;29;20525;-90
2023/04/11 02:25:27;;;;;;;18.63;11.48;;;;;;;;;;2008214;29;20553;-90
2023/04/11 02:26:27;;;;;;;;;;;;;;;;;;2016068;29;20025;-89
2023/04/11 02:27:28;;;;;;;17.88;10.68;;;;;;;;;;2008460;29;19912;-89
2023/04/11 02:28:28;;;;;;;;;;;;;;;;;;2010987;29;20044;-89
2023/04/11 02:29:29;;;;;;;18.25;11.45;;;;;;;;;;2000072;29;20015;-89
2023/04/11 02:30:29;;;;;;;18.77;11.60;;;;;;;;;;2007503;29;20040;-90
2023/04/11 02:31:30;;;;;;;;;;;;;;;;;;2008022;29;20038;-89
2023/04/11 02:32:36;;;;;;;19.17;11.48;;;;;;;;;;2007640;29;20371;-89
2023/04/11 02:33:36;;;;;;;17.27;11.68;;;;;;;;;;2008926;29;20545;-90
2023/04/11 02:34:37;;;;;;;;;;;;;;;;;;2008310;29;20093;-90
2023/04/11 02:35:37;;;;;;;20.20;11.80;;;;;;;;;;2008417;29;19923;-90
2023/04/11 02:36:37;;;;;;;;;;;;;;;;;;2008423;29;20086;-92
2023/04/11 02:37:38;;;;;;;17.13;10.67;;;;;;;;;;2008711;29;19955;-91
2023/04/11 02:38:38;;;;;;;;;;;;;;;;;;2008219;29;20030;-91
2023/04/11 02:39:38;;;;;;;17.43;11.07;;;;;;;;;;2022892;29;19966;-89
2023/04/11 02:40:39;;;;;;;18.13;11.63;;;;;;;;;;2014722;29;20123;-89
2023/04/11 02:41:40;;;;;;;;;;;;;;;;;;2007920;29;20052;-90
2023/04/11 02:42:41;;;;;;;17.65;11.52;;;;;;;;;;2007731;29;19916;-89
2023/04/11 02:43:42;;;;;;;17.33;11.93;;;;;;;;;;2008593;29;20041;-89
2023/04/11 02:44:42;;;;;;;;;;;;;;;;;;2009348;29;20153;-89
2023/04/11 02:45:43;;;;;;;16.77;11.30;;;;;;;;;;2009236;29;19915;-92
2023/04/11 02:46:43;;;;;;;20.25;11.60;;;;;;;;;;2017565;29;20025;-89
2023/04/11 02:47:44;;;;;;;21.17;12.90;;;;;;;;;;2008989;29;20037;-89
2023/04/11 02:48:44;;;;;;;20.92;12.40;;;;;;;;;;2008852;29;20501;-90
2023/04/11 02:49:44;;;;;;;;;;;;;;;;;;2009694;29;20061;-91
2023/04/11 02:50:45;;;;;;;19.02;11.82;;;;;;;;;;2009678;29;19916;-91
2023/04/11 02:51:45;;;;;;;;;;;;;;;;;;2014438;29;20132;-90
2023/04/11 02:52:46;;;;;;;17.33;11.23;;;;;;;;;;2020381;29;19919;-90
2023/04/11 02:53:46;;;;;;;20.17;11.93;;;;;;;;;;2009298;29;20038;-91
2023/04/11 02:54:47;;;;;;;;;;;;;;;;;;2009644;29;20551;-90
2023/04/11 02:55:47;;;;;;;19.97;11.70;;;;;;;;;;2001857;29;19923;-90
2023/04/11 02:56:47;;;;;;;20.65;13.60;;;;;;;;;;2009263;29;20056;-91
2023/04/11 02:57:48;;;;;;;;;;;;;;;;;;2009776;29;20494;-90
2023/04/11 02:58:48;;;;;;;20.50;12.60;;;;;;;;;;2001895;29;19912;-92
2023/04/11 02:59:49;;;;;;;;;;;;;;;;;;2009597;29;20521;-91
2023/04/11 03:00:50;;;;;;;18.07;11.73;;;;;;;;;;2009347;29;20307;-91
2023/04/11 03:01:57;;;;;;;18.13;11.55;;;;;;;;;;2009559;29;20161;-91
2023/04/11 03:02:57;;;;;;;22.17;12.50;;;;;;;;;;2017524;29;20373;-89
2023/04/11 03:03:58;;;;;;;;;;;;;;;;;;2017527;29;20029;-90
2023/04/11 03:05:02;;;;;;;22.23;12.57;;;;;;;;;;2008943;29;20027;-91
2023/04/11 03:06:05;;;;;;;20.25;12.70;;;;;;;;;;2009648;29;20080;-90
2023/04/11 03:07:06;;;;;;;20.73;12.48;;;;;;;;;;2009656;29;20108;-90
2023/04/11 03:08:07;;;;;;;;;;;;;;;;;;2017674;29;20081;-91
2023/04/11 03:09:08;;;;;;;20.45;12.45;;;;;;;;;;2009144;29;19912;-92
2023/04/11 03:10:08;;;;;;;22.13;13.88;;;;;;;;;;2004032;29;20030;-89
2023/04/11 03:11:09;;;;;;;24.42;12.98;;;;;;;;;;2008818;29;20089;-89
2023/04/11 03:12:10;;;;;;;19.85;12.13;;;;;;;;;;2008844;29;20057;-91
2023/04/11 03:13:10;;;;;;;;;;;;;;;;;;2009717;29;20590;-91
2023/04/11 03:14:11;;;;;;;21.63;12.90;;;;;;;;;;2001257;29;20293;-91
2023/04/11 03:15:14;;;;;;;;;;;;;;;;;;2009470;29;20054;-91
2023/04/11 03:16:14;;;;;;;21.60;12.05;;;;;;;;;;2009042;29;19920;-91
2023/04/11 03:17:14;;;;;;;;;;;;;;;;;;2018078;29;20122;-91
2023/04/11 03:18:15;;;;;;;23.43;12.93;;;;;;;;;;2017832;29;19947;-91
2023/04/11 03:19:15;;;;;;;21.10;12.88;;;;;;;;;;2017385;29;20040;-92
2023/04/11 03:20:18;;;;;;;20.13;12.20;;;;;;;;;;2009119;29;20025;-91
2023/04/11 03:21:19;;;;;;;18.73;12.77;;;;;;;;;;2002203;29;20030;-91
2023/04/11 03:22:22;;;;;;;21.88;13.10;;;;;;;;;;2009009;29;20386;-89
2023/04/11 03:23:23;;;;;;;18.83;12.23;;;;;;;;;;2009066;29;20029;-90
2023/04/11 03:24:23;;;;;;;;;;;;;;;;;;2009372;29;20128;-89
2023/04/11 03:25:23;;;;;;;20.57;12.23;;;;;;;;;;2016744;29;19982;-90
2023/04/11 03:26:26;;;;;;;;;;;;;;;;;;2009077;29;20053;-90
2023/04/11 03:27:27;;;;;;;20.05;12.52;;;;;;;;;;2008972;29;20051;-90
2023/04/11 03:28:27;;;;;;;;;;;;;;;;;;2009204;29;20033;-90
2023/04/11 03:29:27;;;;;;;23.23;13.47;;;;;;;;;;2008851;29;19971;-91
2023/04/11 03:30:28;;;;;;;;;;;;;;;;;;2008884;29;20060;-90
2023/04/11 03:31:29;;;;;;;19.57;13.40;;;;;;;;;;2008703;29;19912;-90
2023/04/11 03:32:29;;;;;;;;;;;;;;;;;;2009349;29;20060;-90
2023/04/11 03:33:29;;;;;;;23.07;13.73;;;;;;;;;;2017118;29;19912;-90
2023/04/11 03:34:30;;;;;;;;;;;;;;;;;;2025240;29;20033;-89
2023/04/11 03:35:30;;;;;;;21.47;13.27;;;;;;;;;;2008881;29;19991;-89
2023/04/11 03:36:31;;;;;;;21.00;13.27;;;;;;;;;;2008724;29;20048;-92
2023/04/11 03:37:31;;;;;;;;;;;;;;;;;;2010041;29;20037;-89
2023/04/11 03:38:31;;;;;;;19.97;12.60;;;;;;;;;;2001680;29;19938;-90
2023/04/11 03:39:32;;;;;;;20.42;12.43;;;;;;;;;;2009015;29;20124;-90
2023/04/11 03:40:32;;;;;;;20.33;12.40;;;;;;;;;;2009022;29;20073;-89
2023/04/11 03:41:34;;;;;;;18.25;11.98;;;;;;;;;;2016880;29;20512;-90
2023/04/11 03:42:35;;;;;;;19.30;11.73;;;;;;;;;;2024533;29;20696;-91
2023/04/11 03:43:35;;;;;;;;;;;;;;;;;;2010122;29;20185;-90
2023/04/11 03:44:36;;;;;;;19.30;12.00;;;;;;;;;;2012911;29;19912;-90
2023/04/11 03:45:36;;;;;;;;;;;;;;;;;;2015171;29;20045;-90
2023/04/11 03:46:36;;;;;;;18.27;11.15;;;;;;;;;;2016793;29;20087;-92
2023/04/11 03:47:44;;;;;;;;;;;;;;;;;;1920159;29;10001876;-91
2023/04/11 03:48:45;;;;;;;19.55;12.50;;;;;;;;;;2008706;29;19999;-89
2023/04/11 03:49:46;;;;;;;16.83;11.50;;;;;;;;;;2001304;29;20030;-89
2023/04/11 03:50:46;;;;;;;;;;;;;;;;;;2009540;29;20276;-90
2023/04/11 03:51:47;;;;;;;22.20;13.00;;;;;;;;;;2009176;29;19911;-90
2023/04/11 03:52:47;;;;;;;23.55;13.38;;;;;;;;;;2008947;29;20121;-89
2023/04/11 03:53:47;;;;;;;;;;;;;;;;;;2001812;29;20046;-91
2023/04/11 03:54:48;;;;;;;22.70;14.47;;;;;;;;;;2001746;29;19956;-91
2023/04/11 03:55:48;;;;;;;;;;;;;;;;;;2009134;29;20045;-91
2023/04/11 03:56:48;;;;;;;21.55;13.93;;;;;;;;;;2001144;29;20647;-89
2023/04/11 03:57:49;;;;;;;23.15;14.82;;;;;;;;;;2000829;29;20034;-90
2023/04/11 03:58:49;;;;;;;25.35;15.35;;;;;;;;;;2000892;29;20502;-90
2023/04/11 03:59:50;;;;;;;23.15;13.70;;;;;;;;;;2008758;29;20713;-89
2023/04/11 04:00:50;;;;;;;21.80;13.48;;;;;;;;;;2008630;29;20045;-89
2023/04/11 04:01:50;;;;;;;;;;;;;;;;;;2009106;29;20039;-89
2023/04/11 04:02:51;;;;;;;17.98;12.32;;;;;;;;;;2017282;29;20213;-90
2023/04/11 04:03:51;;;;;;;;;;;;;;;;;;2011080;29;20400;-89
2023/04/11 04:04:57;;;;;;;19.07;12.60;;;;;;;;;;2018383;29;19912;-89
2023/04/11 04:05:58;;;;;;;17.75;11.18;;;;;;;;;;2014958;29;20029;-89
2023/04/11 04:06:58;;;;;;;;;;;;;;;;;;2007714;29;20052;-89
2023/04/11 04:07:58;;;;;;;18.17;11.37;;;;;;;;;;2018078;29;19912;-90
2023/04/11 04:08:59;;;;;;;16.33;11.35;;;;;;;;;;2026779;29;20064;-89
2023/04/11 04:09:59;;;;;;;;;;;;;;;;;;2024051;29;20037;-89
2023/04/11 04:10:59;;;;;;;16.77;10.45;;;;;;;;;;2013920;29;19918;-91
2023/04/11 04:12:00;;;;;;;15.20;10.13;;;;;;;;;;2009169;29;20025;-91
2023/04/11 04:13:00;;;;;;;;;;;;;;;;;;2008731;29;20466;-90
2023/04/11 04:14:01;;;;;;;16.23;10.90;;;;;;;;;;2008327;29;19912;-88
2023/04/11 04:15:01;;;;;;;17.50;11.02;;;;;;;;;;2009194;29;20025;-90
2023/04/11 04:16:02;;;;;;;;;;;;;;;;;;2002157;29;20108;-91
2023/04/11 04:17:03;;;;;;;18.17;11.20;;;;;;;;;;2009898;29;19916;-91
2023/04/11 04:18:04;;;;;;;19.83;11.68;;;;;;;;;;2010382;29;20082;-92
2023/04/11 04:19:04;;;;;;;;;;;;;;;;;;2010790;29;20450;-92
2023/04/11 04:20:07;;;;;;;18.50;10.57;;;;;;;;;;2010557;29;20363;-92
2023/04/11 04:21:08;;;;;;;18.13;11.20;;;;;;;;;;2012051;29;20030;-94
2023/04/11 04:22:10;;;;;;;;;;;;;;;;;;2010833;29;20466;-93
2023/04/11 04:27:08;;;;;;;16.08;10.07;;;;;;;;;;2012140;29;20025;-92
2023/04/11 04:28:08;;;;;;;14.27;9.15;;;;;;;;;;2012121;29;20030;-95
2023/04/11 04:29:11;;;;;;;;;;;;;;;;;;2014232;29;20033;-94
2023/04/11 04:30:14;;;;;;;13.68;9.32;;;;;;;;;;2019177;29;19965;-95
2023/04/11 04:31:24;;;;;;;16.23;10.07;;;;;;;;;;2004920;29;20090;-93
2023/04/11 04:32:27;;;;;;;14.00;9.20;;;;;;;;;;2011497;29;20120;-93
2023/04/11 04:33:31;;;;;;;14.48;10.05;;;;;;;;;;2013217;29;20069;-95
2023/04/11 04:34:54;;;;;;;16.98;10.80;;;;;;;;;;2010647;29;20391;-95
2023/04/11 04:35:58;;;;;;;16.50;10.25;;;;;;;;;;2010243;29;20139;-94
2023/04/11 04:37:00;;;;;;;17.63;10.82;;;;;;;;;;2013906;29;20036;-94
2023/04/11 04:38:05;;;;;;;17.00;9.35;;;;;;;;;;2010528;29;20017;-93
2023/04/11 04:39:05;;;;;;;17.80;10.45;;;;;;;;;;2010373;29;20037;-93
2023/04/11 04:40:10;;;;;;;;;;;;;;;;;;2011285;29;20462;-93
2023/04/11 04:41:13;;;;;;;17.17;10.32;;;;;;;;;;2011977;29;19916;-94
2023/04/11 04:42:14;;;;;;;14.70;10.30;;;;;;;;;;2010057;29;20390;-94
2023/04/11 04:43:17;;;;;;;;;;;;;;;;;;2002579;29;20033;-94
2023/04/11 04:44:17;;;;;;;13.70;9.55;;;;;;;;;;2002807;29;19912;-95
2023/04/11 04:45:18;;;;;;;;;;;;;;;;;;2003465;29;20018;-93
2023/04/11 04:46:18;;;;;;;17.90;11.13;;;;;;;;;;2010451;29;20318;-94
2023/04/11 04:47:22;;;;;;;15.35;10.27;;;;;;;;;;2018067;29;20530;-94
2023/04/11 04:48:24;;;;;;;18.45;10.63;;;;;;;;;;2012304;29;20026;-94
2023/04/11 04:49:25;;;;;;;15.27;10.18;;;;;;;;;;2011698;29;20030;-94
2023/04/11 04:50:25;;;;;;;;;;;;;;;;;;2013523;29;20029;-93
2023/04/11 04:51:29;;;;;;;16.63;9.93;;;;;;;;;;2020307;29;19983;-94
2023/04/11 04:52:29;;;;;;;16.17;10.95;;;;;;;;;;2018135;29;20029;-94
2023/04/11 04:53:33;;;;;;;;;;;;;;;;;;2003115;29;20127;-94
2023/04/11 04:54:36;;;;;;;44.45;22.88;;;;;;;;;;2010850;29;19927;-94
2023/04/11 04:55:39;;;;;;;59.95;30.45;;;;;;;;;;2011847;29;20124;-95
2023/04/11 04:56:40;;;;;;;17.20;10.55;;;;;;;;;;2010185;29;20043;-94
2023/04/11 04:57:41;;;;;;;;;;;;;;;;;;2002797;29;20052;-94
2023/04/11 04:58:45;;;;;;;14.15;9.25;;;;;;;;;;2010151;29;19912;-94
2023/04/11 04:59:51;;;;;;;19.75;11.07;;;;;;;;;;2010605;29;20474;-94
2023/04/11 05:00:56;;;;;;;17.55;10.68;;;;;;;;;;2010342;29;20081;-95
2023/04/11 05:01:57;;;;;;;13.38;9.45;;;;;;;;;;2010231;29;20430;-94
2023/04/11 05:02:58;;;;;;;16.38;10.35;;;;;;;;;;2010543;29;20038;-93
2023/04/11 05:03:58;;;;;;;;;;;;;;;;;;2010922;29;20044;-94
2023/04/11 05:05:02;;;;;;;17.40;10.13;;;;;;;;;;2010340;29;20388;-94
2023/04/11 05:06:05;;;;;;;15.73;10.57;;;;;;;;;;2012512;29;20045;-93
2023/04/11 05:07:05;;;;;;;15.00;10.82;;;;;;;;;;2010323;29;20060;-94
2023/04/11 05:08:06;;;;;;;;;;;;;;;;;;2010350;29;20037;-94
2023/04/11 05:09:06;;;;;;;20.63;11.10;;;;;;;;;;2010231;29;20369;-95
2023/04/11 05:10:07;;;;;;;;;;;;;;;;;;2002957;29;20037;-96
2023/04/11 05:11:08;;;;;;;16.55;10.20;;;;;;;;;;2010300;29;19919;-94
2023/04/11 05:12:12;;;;;;;16.35;10.30;;;;;;;;;;2009969;29;20040;-93
2023/04/11 05:13:13;;;;;;;20.30;12.05;;;;;;;;;;2010646;29;20123;-94
2023/04/11 05:14:13;;;;;;;;;;;;;;;;;;2011253;29;20226;-94
2023/04/11 05:15:14;;;;;;;15.93;10.87;;;;;;;;;;2009978;29;19912;-93
2023/04/11 05:16:15;;;;;;;;;;;;;;;;;;2009951;29;20039;-93
2023/04/11 05:17:15;;;;;;;16.77;10.65;;;;;;;;;;2009745;29;20390;-92
2023/04/11 05:18:16;;;;;;;;;;;;;;;;;;2018161;29;20108;-92
2023/04/11 05:19:16;;;;;;;18.13;10.17;;;;;;;;;;2010632;29;19919;-92
2023/04/11 05:20:17;;;;;;;15.63;10.05;;;;;;;;;;2002093;29;20117;-92
2023/04/11 05:21:17;;;;;;;16.73;10.60;;;;;;;;;;2009659;29;20026;-94
2023/04/11 05:22:17;;;;;;;;;;;;;;;;;;2001873;29;20116;-91
2023/04/11 05:23:18;;;;;;;14.50;10.20;;;;;;;;;;2002214;29;20027;-92
2023/04/11 05:24:18;;;;;;;15.95;10.38;;;;;;;;;;2004952;29;20134;-90
2023/04/11 05:25:19;;;;;;;17.38;9.38;;;;;;;;;;1665489;29;10297946;-92
2023/04/11 05:26:19;;;;;;;;;;;;;;;;;;2018011;29;20552;-93
2023/04/11 05:27:19;;;;;;;16.27;10.63;;;;;;;;;;2009623;29;20003;-94
2023/04/11 05:28:20;;;;;;;;;;;;;;;;;;2009988;29;20450;-92
2023/04/11 05:29:20;;;;;;;15.37;9.80;;;;;;;;;;2009858;29;19988;-93
2023/04/11 05:30:21;;;;;;;;;;;;;;;;;;2013857;29;20039;-93
2023/04/11 05:31:24;;;;;;;14.35;8.23;;;;;;;;;;2017970;29;19975;-91
2023/04/11 05:32:24;;;;;;;15.85;10.48;;;;;;;;;;2010303;29;20116;-93
2023/04/11 05:33:25;;;;;;;;;;;;;;;;;;2009751;29;20033;-93
2023/04/11 05:34:29;;;;;;;15.47;8.80;;;;;;;;;;2001983;29;20023;-93
2023/04/11 05:35:30;;;;;;;17.65;10.80;;;;;;;;;;2002070;29;20030;-93
2023/04/11 05:36:31;;;;;;;;;;;;;;;;;;2002487;29;20138;-91
2023/04/11 05:37:31;;;;;;;16.10;9.80;;;;;;;;;;2009371;29;19941;-92
2023/04/11 05:38:32;;;;;;;;;;;;;;;;;;2010351;29;20033;-92
2023/04/11 05:39:32;;;;;;;12.47;8.83;;;;;;;;;;2010986;29;19944;-93
2023/04/11 05:40:33;;;;;;;12.88;8.90;;;;;;;;;;2019018;29;20169;-91
2023/04/11 05:41:36;;;;;;;12.48;9.00;;;;;;;;;;2018142;29;20032;-93
2023/04/11 05:42:37;;;;;;;14.50;9.70;;;;;;;;;;2017322;29;20063;-91
2023/04/11 05:43:37;;;;;;;;;;;;;;;;;;2018566;29;20100;-93
2023/04/11 05:44:41;;;;;;;14.73;8.97;;;;;;;;;;2010174;29;20347;-93
2023/04/11 05:45:46;;;;;;;12.68;9.75;;;;;;;;;;2010531;29;20037;-92
2023/04/11 05:46:46;;;;;;;13.68;8.98;;;;;;;;;;2010877;29;20025;-93
2023/04/11 05:47:50;;;;;;;;;;;;;;;;;;2002532;29;20129;-92
2023/04/11 05:48:53;;;;;;;13.30;8.13;;;;;;;;;;2010280;29;19912;-91
2023/04/11 05:49:54;;;;;;;10.63;8.20;;;;;;;;;;2009542;29;20120;-91
2023/04/11 05:50:56;;;;;;;;;;;;;;;;;;2009239;29;20140;-89
2023/04/11 05:52:00;;;;;;;13.98;8.88;;;;;;;;;;2008648;29;19943;-91
2023/04/11 05:53:03;;;;;;;13.60;8.00;;;;;;;;;;2009620;29;20033;-91
2023/04/11 05:54:14;;;;;;;13.00;8.90;;;;;;;;;;2016749;29;20029;-91
2023/04/11 05:55:15;;;;;;;10.52;7.72;;;;;;;;;;2016634;29;20033;-93
2023/04/11 05:56:16;;;;;;;13.05;8.63;;;;;;;;;;2015482;29;20057;-92
2023/04/11 05:57:17;;;;;;;;;;;;;;;;;;2016435;29;20343;-90
2023/04/11 05:58:17;;;;;;;13.77;9.80;;;;;;;;;;2016506;29;20285;-90
2023/04/11 05:59:18;;;;;;;13.13;8.25;;;;;;;;;;2008461;29;20026;-93
2023/04/11 06:00:19;;;;;;;19.05;10.50;;;;;;;;;;2009037;29;20069;-93
2023/04/11 06:01:22;;;;;;;13.02;8.75;;;;;;;;;;2003795;29;20060;-91
2023/04/11 06:02:32;;;;;;;11.75;7.65;;;;;;;;;;2009513;29;20029;-93
2023/04/11 06:03:35;;;;;;;11.80;7.93;;;;;;;;;;2008997;29;20033;-92
2023/04/11 06:04:35;;;;;;;10.80;8.00;;;;;;;;;;2001375;29;20088;-93
2023/04/11 06:05:36;;;;;;;;;;;;;;;;;;2001377;29;20034;-92
2023/04/11 06:06:39;;;;;;;10.30;7.50;;;;;;;;;;2008591;29;20347;-92
2023/04/11 06:07:40;;;;;;;12.10;7.10;;;;;;;;;;2008410;29;20149;-92
2023/04/11 06:08:41;;;;;;;10.48;7.30;;;;;;;;;;2008511;29;20453;-92
2023/04/11 06:09:43;;;;;;;;;;;;;;;;;;2008816;29;20035;-92
2023/04/11 06:10:43;;;;;;;10.90;7.57;;;;;;;;;;1668375;29;10143828;-92
2023/04/11 06:11:46;;;;;;;;;;;;;;;;;;2016794;29;20044;-92
2023/04/11 06:12:47;;;;;;;10.70;8.13;;;;;;;;;;2008526;29;19920;-93
2023/04/11 06:14:00;;;;;;;;;;;;;;;;;;2009412;29;20068;-92
2023/04/11 06:16:23;;;;;;;;;;;;;;;;;;;;;
2023/04/11 06:17:04;;;;;;;11.32;8.65;;;;;;;;;;2006994;29;20048;-92
2023/04/11 06:18:04;;;;;;;11.93;8.30;;;;;;;;;;2004781;29;20097;-92
2023/04/11 06:19:07;;;;;;;;;;;;;;;;;;2007909;29;20117;-92
2023/04/11 06:20:09;;;;;;;10.13;7.25;;;;;;;;;;2007005;29;20388;-92
2023/04/11 06:21:09;;;;;;;11.63;8.05;;;;;;;;;;2007843;29;20030;-91